sensor_id;sensor_type;location;lat;lon;timestamp;pressure;altitude;pressure_sealevel;temperature;humidity
59289;BME280;45056;47.602;9.886;2024-01-15T00:01:02;91766.09;;;2.21;70.20
59289;BME280;45056;47.602;9.886;2024-01-15T00:03:32;91758.81;;;2.22;70.12
59289;BME280;45056;47.602;9.886;2024-01-15T00:06:00;91763.44;;;2.21;69.93
59289;BME280;45056;47.602;9.886;2024-01-15T00:08:28;91749.25;;;2.21;70.11
59289;BME280;45056;47.602;9.886;2024-01-15T00:10:56;91745.41;;;2.22;70.29
59289;BME280;45056;47.602;9.886;2024-01-15T00:13:24;91747.66;;;2.23;70.48
59289;BME280;45056;47.602;9.886;2024-01-15T00:15:52;91746.16;;;2.22;70.65
59289;BME280;45056;47.602;9.886;2024-01-15T00:18:20;91746.16;;;2.22;70.55
59289;BME280;45056;47.602;9.886;2024-01-15T00:20:49;91747.66;;;2.23;70.59
59289;BME280;45056;47.602;9.886;2024-01-15T00:23:17;91743.06;;;2.24;70.45
59289;BME280;45056;47.602;9.886;2024-01-15T00:25:45;91739.94;;;2.25;70.46
59289;BME280;45056;47.602;9.886;2024-01-15T00:28:13;91741.44;;;2.26;70.76
59289;BME280;45056;47.602;9.886;2024-01-15T00:30:41;91741.03;;;2.28;70.68
59289;BME280;45056;47.602;9.886;2024-01-15T00:33:09;91727.19;;;2.29;70.79
59289;BME280;45056;47.602;9.886;2024-01-15T00:35:38;91731.38;;;2.30;70.55
59289;BME280;45056;47.602;9.886;2024-01-15T00:38:08;91732.16;;;2.31;70.58
59289;BME280;45056;47.602;9.886;2024-01-15T00:40:36;91738.69;;;2.30;70.52
59289;BME280;45056;47.602;9.886;2024-01-15T00:43:04;91725.28;;;2.30;70.50
59289;BME280;45056;47.602;9.886;2024-01-15T00:45:34;91722.94;;;2.32;70.60
59289;BME280;45056;47.602;9.886;2024-01-15T00:48:02;91728.63;;;2.34;70.46
59289;BME280;45056;47.602;9.886;2024-01-15T00:50:31;91724.03;;;2.35;70.42
59289;BME280;45056;47.602;9.886;2024-01-15T00:52:59;91731.31;;;2.34;70.40
59289;BME280;45056;47.602;9.886;2024-01-15T00:55:28;91728.63;;;2.34;70.33
59289;BME280;45056;47.602;9.886;2024-01-15T00:57:56;91724.03;;;2.35;70.42
59289;BME280;45056;47.602;9.886;2024-01-15T01:00:24;91732.81;;;2.35;70.49
59289;BME280;45056;47.602;9.886;2024-01-15T01:02:53;91732.50;;;2.33;70.51
59289;BME280;45056;47.602;9.886;2024-01-15T01:05:21;91721.09;;;2.29;70.55
59289;BME280;45056;47.602;9.886;2024-01-15T01:07:49;91729.97;;;2.26;70.80
59289;BME280;45056;47.602;9.886;2024-01-15T01:10:17;91726.94;;;2.24;70.95
59289;BME280;45056;47.602;9.886;2024-01-15T01:12:46;91733.84;;;2.25;70.91
59289;BME280;45056;47.602;9.886;2024-01-15T01:15:14;91738.44;;;2.24;70.79
59289;BME280;45056;47.602;9.886;2024-01-15T01:17:42;91733.91;;;2.21;70.89
59289;BME280;45056;47.602;9.886;2024-01-15T01:20:10;91736.25;;;2.19;70.77
59289;BME280;45056;47.602;9.886;2024-01-15T01:22:38;91741.69;;;2.15;70.82
59289;BME280;45056;47.602;9.886;2024-01-15T01:25:07;91742.53;;;2.12;70.88
59289;BME280;45056;47.602;9.886;2024-01-15T01:27:35;91743.28;;;2.13;70.75
59289;BME280;45056;47.602;9.886;2024-01-15T01:30:06;91752.50;;;2.12;70.64
59289;BME280;45056;47.602;9.886;2024-01-15T01:32:35;91758.28;;;2.10;70.99
59289;BME280;45056;47.602;9.886;2024-01-15T01:35:03;91752.56;;;2.08;70.80
59289;BME280;45056;47.602;9.886;2024-01-15T01:37:32;91751.91;;;2.04;70.68
59289;BME280;45056;47.602;9.886;2024-01-15T01:40:01;91755.47;;;1.97;70.52
59289;BME280;45056;47.602;9.886;2024-01-15T01:42:29;91761.69;;;1.94;70.88
59289;BME280;45056;47.602;9.886;2024-01-15T01:44:57;91762.50;;;1.91;70.68
59289;BME280;45056;47.602;9.886;2024-01-15T01:47:27;91767.19;;;1.87;70.85
59289;BME280;45056;47.602;9.886;2024-01-15T01:49:55;91771.78;;;1.86;70.66
59289;BME280;45056;47.602;9.886;2024-01-15T01:52:24;91766.84;;;1.85;70.71
59289;BME280;45056;47.602;9.886;2024-01-15T01:54:52;91762.25;;;1.85;70.60
59289;BME280;45056;47.602;9.886;2024-01-15T01:57:22;91761.50;;;1.85;70.68
59289;BME280;45056;47.602;9.886;2024-01-15T01:59:51;91768.78;;;1.84;70.41
59289;BME280;45056;47.602;9.886;2024-01-15T02:02:19;91768.44;;;1.82;70.57
59289;BME280;45056;47.602;9.886;2024-01-15T02:04:50;91766.59;;;1.79;70.49
59289;BME280;45056;47.602;9.886;2024-01-15T02:07:18;91770.09;;;1.76;69.99
59289;BME280;45056;47.602;9.886;2024-01-15T02:09:47;91769.41;;;1.72;69.96
59289;BME280;45056;47.602;9.886;2024-01-15T02:12:15;91768.63;;;1.71;69.67
59289;BME280;45056;47.602;9.886;2024-01-15T02:14:43;91768.72;;;1.68;69.75
59289;BME280;45056;47.602;9.886;2024-01-15T02:17:11;91775.66;;;1.65;69.84
59289;BME280;45056;47.602;9.886;2024-01-15T02:19:39;91777.25;;;1.63;69.58
59289;BME280;45056;47.602;9.886;2024-01-15T02:22:09;91776.16;;;1.60;69.55
59289;BME280;45056;47.602;9.886;2024-01-15T02:24:39;91781.16;;;1.58;69.85
59289;BME280;45056;47.602;9.886;2024-01-15T02:27:07;91767.03;;;1.57;69.74
59289;BME280;45056;47.602;9.886;2024-01-15T02:29:36;91774.69;;;1.55;69.52
59289;BME280;45056;47.602;9.886;2024-01-15T02:32:04;91775.53;;;1.52;69.24
59289;BME280;45056;47.602;9.886;2024-01-15T02:34:33;91769.47;;;1.48;68.01
59289;BME280;45056;47.602;9.886;2024-01-15T02:37:01;91774.59;;;1.42;68.41
59289;BME280;45056;47.602;9.886;2024-01-15T02:39:29;91763.47;;;1.40;68.37
59289;BME280;45056;47.602;9.886;2024-01-15T02:41:59;91765.75;;;1.42;68.13
59289;BME280;45056;47.602;9.886;2024-01-15T02:44:27;91765.44;;;1.40;67.95
59289;BME280;45056;47.602;9.886;2024-01-15T02:46:55;91767.75;;;1.38;67.67
59289;BME280;45056;47.602;9.886;2024-01-15T02:49:23;91755.59;;;1.33;67.76
59289;BME280;45056;47.602;9.886;2024-01-15T02:51:51;91762.88;;;1.33;67.71
59289;BME280;45056;47.602;9.886;2024-01-15T02:54:19;91768.25;;;1.33;67.41
59289;BME280;45056;47.602;9.886;2024-01-15T02:56:47;91767.91;;;1.31;67.45
59289;BME280;45056;47.602;9.886;2024-01-15T02:59:16;91766.72;;;1.32;67.48
59289;BME280;45056;47.602;9.886;2024-01-15T03:01:44;91770.94;;;1.33;67.31
59289;BME280;45056;47.602;9.886;2024-01-15T03:04:12;91773.19;;;1.34;67.24
59289;BME280;45056;47.602;9.886;2024-01-15T03:06:40;91776.19;;;1.36;67.20
59289;BME280;45056;47.602;9.886;2024-01-15T03:09:08;91778.13;;;1.36;66.67
59289;BME280;45056;47.602;9.886;2024-01-15T03:11:39;91772.44;;;1.34;66.86
59289;BME280;45056;47.602;9.886;2024-01-15T03:14:08;91762.88;;;1.33;66.81
59289;BME280;45056;47.602;9.886;2024-01-15T03:16:37;91761.78;;;1.30;66.66
59289;BME280;45056;47.602;9.886;2024-01-15T03:19:05;91758.34;;;1.29;66.44
59289;BME280;45056;47.602;9.886;2024-01-15T03:21:33;91760.25;;;1.29;66.54
59289;BME280;45056;47.602;9.886;2024-01-15T03:24:01;91761.03;;;1.29;66.55
59289;BME280;45056;47.602;9.886;2024-01-15T03:26:29;91769.41;;;1.32;66.28
59289;BME280;45056;47.602;9.886;2024-01-15T03:28:57;91764.41;;;1.34;66.56
59289;BME280;45056;47.602;9.886;2024-01-15T03:31:25;91776.97;;;1.37;66.24
59289;BME280;45056;47.602;9.886;2024-01-15T03:33:55;91767.41;;;1.36;66.16
59289;BME280;45056;47.602;9.886;2024-01-15T03:36:23;91768.97;;;1.33;65.91
59289;BME280;45056;47.602;9.886;2024-01-15T03:38:52;91767.91;;;1.31;65.90
59289;BME280;45056;47.602;9.886;2024-01-15T03:41:20;91767.13;;;1.30;65.80
59289;BME280;45056;47.602;9.886;2024-01-15T03:43:48;91763.38;;;1.27;65.80
59289;BME280;45056;47.602;9.886;2024-01-15T03:46:16;91758.06;;;1.24;65.60
59289;BME280;45056;47.602;9.886;2024-01-15T03:48:44;91760.41;;;1.22;65.84
59289;BME280;45056;47.602;9.886;2024-01-15T03:51:16;91766.56;;;1.19;65.65
59289;BME280;45056;47.602;9.886;2024-01-15T03:53:45;91762.78;;;1.16;65.73
59289;BME280;45056;47.602;9.886;2024-01-15T03:56:13;91761.28;;;1.15;65.79
59289;BME280;45056;47.602;9.886;2024-01-15T03:58:41;91764.38;;;1.13;65.73
59289;BME280;45056;47.602;9.886;2024-01-15T04:01:10;91768.22;;;1.12;65.70
59289;BME280;45056;47.602;9.886;2024-01-15T04:03:38;91760.59;;;1.11;65.66
59289;BME280;45056;47.602;9.886;2024-01-15T04:06:06;91762.09;;;1.12;65.75
59289;BME280;45056;47.602;9.886;2024-01-15T04:08:36;91754.53;;;1.07;65.71
59289;BME280;45056;47.602;9.886;2024-01-15T04:11:04;91750.75;;;1.04;65.97
59289;BME280;45056;47.602;9.886;2024-01-15T04:13:32;91750.00;;;1.04;65.71
59289;BME280;45056;47.602;9.886;2024-01-15T04:16:01;91750.00;;;1.04;65.58
59289;BME280;45056;47.602;9.886;2024-01-15T04:18:29;91748.50;;;1.03;65.40
59289;BME280;45056;47.602;9.886;2024-01-15T04:20:57;91746.97;;;1.02;65.45
59289;BME280;45056;47.602;9.886;2024-01-15T04:23:25;91749.31;;;0.99;65.26
59289;BME280;45056;47.602;9.886;2024-01-15T04:25:55;91741.66;;;0.98;65.12
59289;BME280;45056;47.602;9.886;2024-01-15T04:28:23;91747.44;;;0.96;64.84
59289;BME280;45056;47.602;9.886;2024-01-15T04:30:51;91748.97;;;0.97;65.11
59289;BME280;45056;47.602;9.886;2024-01-15T04:33:19;91752.81;;;0.96;64.71
59289;BME280;45056;47.602;9.886;2024-01-15T04:35:48;91744.44;;;0.94;65.05
59289;BME280;45056;47.602;9.886;2024-01-15T04:38:17;91735.28;;;0.92;65.00
59289;BME280;45056;47.602;9.886;2024-01-15T04:40:45;91753.25;;;0.91;64.81
59289;BME280;45056;47.602;9.886;2024-01-15T04:43:14;91749.88;;;0.87;64.82
59289;BME280;45056;47.602;9.886;2024-01-15T04:45:42;91744.19;;;0.85;64.84
59289;BME280;45056;47.602;9.886;2024-01-15T04:48:10;91745.00;;;0.82;64.47
59289;BME280;45056;47.602;9.886;2024-01-15T04:50:38;91741.97;;;0.80;64.66
59289;BME280;45056;47.602;9.886;2024-01-15T04:53:06;91751.19;;;0.79;64.77
59289;BME280;45056;47.602;9.886;2024-01-15T04:55:34;91747.38;;;0.76;64.46
59289;BME280;45056;47.602;9.886;2024-01-15T04:58:02;91757.47;;;0.68;63.95
59289;BME280;45056;47.602;9.886;2024-01-15T05:00:32;91763.28;;;0.63;63.96
59289;BME280;45056;47.602;9.886;2024-01-15T05:03:00;91762.19;;;0.61;64.07
59289;BME280;45056;47.602;9.886;2024-01-15T05:05:28;91764.16;;;0.56;63.96
59289;BME280;45056;47.602;9.886;2024-01-15T05:07:56;91766.88;;;0.53;64.10
59289;BME280;45056;47.602;9.886;2024-01-15T05:10:24;91766.88;;;0.53;63.99
59289;BME280;45056;47.602;9.886;2024-01-15T05:12:52;91764.19;;;0.53;63.85
59289;BME280;45056;47.602;9.886;2024-01-15T05:15:20;91750.47;;;0.51;64.06
59289;BME280;45056;47.602;9.886;2024-01-15T05:17:49;91752.41;;;0.50;64.07
59289;BME280;45056;47.602;9.886;2024-01-15T05:20:17;91751.63;;;0.50;64.21
59289;BME280;45056;47.602;9.886;2024-01-15T05:22:45;91748.97;;;0.50;64.49
59289;BME280;45056;47.602;9.886;2024-01-15T05:25:13;91759.28;;;0.51;64.64
59289;BME280;45056;47.602;9.886;2024-01-15T05:27:41;91748.56;;;0.51;64.72
59289;BME280;45056;47.602;9.886;2024-01-15T05:30:10;91756.59;;;0.51;64.83
59289;BME280;45056;47.602;9.886;2024-01-15T05:32:39;91751.25;;;0.51;64.67
59289;BME280;45056;47.602;9.886;2024-01-15T05:35:09;91756.94;;;0.53;64.84
59289;BME280;45056;47.602;9.886;2024-01-15T05:37:37;91757.28;;;0.55;64.72
59289;BME280;45056;47.602;9.886;2024-01-15T05:40:06;91750.78;;;0.56;64.68
59289;BME280;45056;47.602;9.886;2024-01-15T05:42:35;91750.34;;;0.58;64.59
59289;BME280;45056;47.602;9.886;2024-01-15T05:45:04;91750.69;;;0.60;64.54
59289;BME280;45056;47.602;9.886;2024-01-15T05:47:33;91751.88;;;0.59;64.57
59289;BME280;45056;47.602;9.886;2024-01-15T05:50:01;91745.34;;;0.60;64.35
59289;BME280;45056;47.602;9.886;2024-01-15T05:52:30;91743.84;;;0.59;64.53
59289;BME280;45056;47.602;9.886;2024-01-15T05:54:58;91756.06;;;0.60;64.42
59289;BME280;45056;47.602;9.886;2024-01-15T05:57:26;91748.44;;;0.59;64.09
59289;BME280;45056;47.602;9.886;2024-01-15T05:59:55;91747.66;;;0.58;63.64
59289;BME280;45056;47.602;9.886;2024-01-15T06:02:24;91747.66;;;0.58;63.28
59289;BME280;45056;47.602;9.886;2024-01-15T06:04:52;91755.69;;;0.58;62.69
59289;BME280;45056;47.602;9.886;2024-01-15T06:07:19;91748.84;;;0.57;62.60
59289;BME280;45056;47.602;9.886;2024-01-15T06:09:50;91752.69;;;0.56;62.06
59289;BME280;45056;47.602;9.886;2024-01-15T06:12:18;91754.25;;;0.53;62.10
59289;BME280;45056;47.602;9.886;2024-01-15T06:14:46;91752.75;;;0.52;61.57
59289;BME280;45056;47.602;9.886;2024-01-15T06:17:14;91751.97;;;0.52;61.28
59289;BME280;45056;47.602;9.886;2024-01-15T06:19:42;91754.31;;;0.50;61.36
59289;BME280;45056;47.602;9.886;2024-01-15T06:22:10;91747.44;;;0.49;61.49
59289;BME280;45056;47.602;9.886;2024-01-15T06:24:38;91752.41;;;0.50;61.67
59289;BME280;45056;47.602;9.886;2024-01-15T06:27:08;91749.31;;;0.52;61.47
59289;BME280;45056;47.602;9.886;2024-01-15T06:29:38;91749.66;;;0.54;61.56
59289;BME280;45056;47.602;9.886;2024-01-15T06:32:06;91747.31;;;0.56;61.82
59289;BME280;45056;47.602;9.886;2024-01-15T06:34:34;91754.19;;;0.57;61.46
59289;BME280;45056;47.602;9.886;2024-01-15T06:37:02;91743.09;;;0.59;61.61
59289;BME280;45056;47.602;9.886;2024-01-15T06:39:31;91728.59;;;0.56;61.26
59289;BME280;45056;47.602;9.886;2024-01-15T06:41:59;91733.59;;;0.54;61.38
59289;BME280;45056;47.602;9.886;2024-01-15T06:44:28;91738.22;;;0.53;61.23
59289;BME280;45056;47.602;9.886;2024-01-15T06:46:56;91726.38;;;0.51;61.43
59289;BME280;45056;47.602;9.886;2024-01-15T06:49:28;91727.88;;;0.52;61.55
59289;BME280;45056;47.602;9.886;2024-01-15T06:51:57;91728.25;;;0.54;61.03
59289;BME280;45056;47.602;9.886;2024-01-15T06:54:25;91722.88;;;0.54;60.95
59289;BME280;45056;47.602;9.886;2024-01-15T06:56:53;91730.91;;;0.54;60.96
59289;BME280;45056;47.602;9.886;2024-01-15T06:59:21;91726.34;;;0.54;60.88
59289;BME280;45056;47.602;9.886;2024-01-15T07:01:51;91730.19;;;0.53;60.96
59289;BME280;45056;47.602;9.886;2024-01-15T07:04:19;91729.81;;;0.51;61.09
59289;BME280;45056;47.602;9.886;2024-01-15T07:06:47;91727.16;;;0.51;60.96
59289;BME280;45056;47.602;9.886;2024-01-15T07:09:15;91722.53;;;0.52;61.30
59289;BME280;45056;47.602;9.886;2024-01-15T07:11:44;91737.44;;;0.53;60.89
59289;BME280;45056;47.602;9.886;2024-01-15T07:14:13;91730.19;;;0.53;60.97
59289;BME280;45056;47.602;9.886;2024-01-15T07:16:41;91731.69;;;0.54;60.86
59289;BME280;45056;47.602;9.886;2024-01-15T07:19:11;91735.53;;;0.53;60.77
59289;BME280;45056;47.602;9.886;2024-01-15T07:21:39;91735.19;;;0.51;60.84
59289;BME280;45056;47.602;9.886;2024-01-15T07:24:09;91740.19;;;0.49;61.07
59289;BME280;45056;47.602;9.886;2024-01-15T07:26:37;91724.53;;;0.48;60.91
59289;BME280;45056;47.602;9.886;2024-01-15T07:29:06;91740.94;;;0.50;61.14
59289;BME280;45056;47.602;9.886;2024-01-15T07:31:34;91734.75;;;0.53;61.66
59289;BME280;45056;47.602;9.886;2024-01-15T07:34:03;91736.63;;;0.56;61.67
59289;BME280;45056;47.602;9.886;2024-01-15T07:36:32;91741.22;;;0.55;61.41
59289;BME280;45056;47.602;9.886;2024-01-15T07:39:00;91740.09;;;0.53;61.34
59289;BME280;45056;47.602;9.886;2024-01-15T07:41:28;91737.44;;;0.53;61.47
59289;BME280;45056;47.602;9.886;2024-01-15T07:43:56;91731.72;;;0.51;61.03
59289;BME280;45056;47.602;9.886;2024-01-15T07:46:24;91724.13;;;0.49;61.38
59289;BME280;45056;47.602;9.886;2024-01-15T07:48:52;91727.97;;;0.48;61.51
59289;BME280;45056;47.602;9.886;2024-01-15T07:51:23;91729.47;;;0.49;61.42
59289;BME280;45056;47.602;9.886;2024-01-15T07:53:53;91728.72;;;0.49;61.10
59289;BME280;45056;47.602;9.886;2024-01-15T07:56:22;91724.47;;;0.51;60.98
59289;BME280;45056;47.602;9.886;2024-01-15T07:58:50;91724.06;;;0.53;61.16
59289;BME280;45056;47.602;9.886;2024-01-15T08:01:18;91712.59;;;0.52;60.97
59289;BME280;45056;47.602;9.886;2024-01-15T08:03:46;91711.09;;;0.51;60.75
59289;BME280;45056;47.602;9.886;2024-01-15T08:06:15;91714.50;;;0.52;61.12
59289;BME280;45056;47.602;9.886;2024-01-15T08:08:43;91714.84;;;0.54;61.15
59289;BME280;45056;47.602;9.886;2024-01-15T08:11:12;91714.13;;;0.53;60.95
59289;BME280;45056;47.602;9.886;2024-01-15T08:13:41;91720.97;;;0.54;60.98
59289;BME280;45056;47.602;9.886;2024-01-15T08:16:09;91723.22;;;0.56;61.02
59289;BME280;45056;47.602;9.886;2024-01-15T08:18:37;91723.22;;;0.56;60.96
59289;BME280;45056;47.602;9.886;2024-01-15T08:21:05;91728.94;;;0.58;60.76
59289;BME280;45056;47.602;9.886;2024-01-15T08:23:34;91725.09;;;0.59;60.84
59289;BME280;45056;47.602;9.886;2024-01-15T08:26:02;91737.38;;;0.56;60.84
59289;BME280;45056;47.602;9.886;2024-01-15T08:28:32;91723.66;;;0.54;61.16
59289;BME280;45056;47.602;9.886;2024-01-15T08:31:00;91719.03;;;0.55;61.21
59289;BME280;45056;47.602;9.886;2024-01-15T08:33:29;91732.44;;;0.55;61.29
59289;BME280;45056;47.602;9.886;2024-01-15T08:35:57;91737.78;;;0.55;61.39
59289;BME280;45056;47.602;9.886;2024-01-15T08:38:25;91733.19;;;0.55;61.53
59289;BME280;45056;47.602;9.886;2024-01-15T08:40:53;91737.78;;;0.55;61.28
59289;BME280;45056;47.602;9.886;2024-01-15T08:43:23;91739.72;;;0.54;61.50
59289;BME280;45056;47.602;9.886;2024-01-15T08:45:52;91731.00;;;0.50;61.98
59289;BME280;45056;47.602;9.886;2024-01-15T08:48:20;91739.41;;;0.49;62.27
59289;BME280;45056;47.602;9.886;2024-01-15T08:50:48;91739.06;;;0.47;62.25
59289;BME280;45056;47.602;9.886;2024-01-15T08:53:16;91744.06;;;0.45;62.66
59289;BME280;45056;47.602;9.886;2024-01-15T08:55:45;91734.88;;;0.46;63.00
59289;BME280;45056;47.602;9.886;2024-01-15T08:58:13;91755.91;;;0.47;63.32
59289;BME280;45056;47.602;9.886;2024-01-15T09:00:41;91749.25;;;0.55;64.22
59289;BME280;45056;47.602;9.886;2024-01-15T09:03:11;91746.84;;;0.61;64.31
59289;BME280;45056;47.602;9.886;2024-01-15T09:05:39;91747.56;;;0.65;63.94
59289;BME280;45056;47.602;9.886;2024-01-15T09:08:07;91754.44;;;0.66;63.99
59289;BME280;45056;47.602;9.886;2024-01-15T09:10:35;91749.91;;;0.63;64.18
59289;BME280;45056;47.602;9.886;2024-01-15T09:13:03;91750.34;;;0.58;64.09
59289;BME280;45056;47.602;9.886;2024-01-15T09:15:31;91761.53;;;0.53;64.28
59289;BME280;45056;47.602;9.886;2024-01-15T09:18:00;91751.28;;;0.48;64.53
59289;BME280;45056;47.602;9.886;2024-01-15T09:20:30;91757.44;;;0.45;64.69
59289;BME280;45056;47.602;9.886;2024-01-15T09:22:58;91755.16;;;0.43;65.00
59289;BME280;45056;47.602;9.886;2024-01-15T09:25:26;91749.81;;;0.43;65.08
59289;BME280;45056;47.602;9.886;2024-01-15T09:27:54;91746.03;;;0.40;64.97
59289;BME280;45056;47.602;9.886;2024-01-15T09:30:22;91753.72;;;0.38;65.45
59289;BME280;45056;47.602;9.886;2024-01-15T09:32:50;91750.28;;;0.38;65.28
59289;BME280;45056;47.602;9.886;2024-01-15T09:35:18;91755.97;;;0.40;65.44
59289;BME280;45056;47.602;9.886;2024-01-15T09:37:47;91754.81;;;0.41;65.65
59289;BME280;45056;47.602;9.886;2024-01-15T09:40:15;91758.63;;;0.43;65.23
59289;BME280;45056;47.602;9.886;2024-01-15T09:42:44;91758.25;;;0.41;65.44
59289;BME280;45056;47.602;9.886;2024-01-15T09:45:13;91760.16;;;0.41;65.69
59289;BME280;45056;47.602;9.886;2024-01-15T09:47:43;91770.06;;;0.44;65.79
59289;BME280;45056;47.602;9.886;2024-01-15T09:50:12;91771.56;;;0.45;65.93
59289;BME280;45056;47.602;9.886;2024-01-15T09:52:43;91763.94;;;0.47;65.71
59289;BME280;45056;47.602;9.886;2024-01-15T09:55:13;91765.81;;;0.47;65.67
59289;BME280;45056;47.602;9.886;2024-01-15T09:57:44;91760.47;;;0.47;65.65
59289;BME280;45056;47.602;9.886;2024-01-15T10:00:13;91756.28;;;0.46;65.86
59289;BME280;45056;47.602;9.886;2024-01-15T10:02:44;91750.88;;;0.49;65.86
59289;BME280;45056;47.602;9.886;2024-01-15T10:05:13;91759.66;;;0.50;65.71
59289;BME280;45056;47.602;9.886;2024-01-15T10:07:42;91762.34;;;0.50;65.58
59289;BME280;45056;47.602;9.886;2024-01-15T10:10:12;91750.13;;;0.49;65.62
59289;BME280;45056;47.602;9.886;2024-01-15T10:12:42;91748.25;;;0.46;65.67
59289;BME280;45056;47.602;9.886;2024-01-15T10:15:10;91751.31;;;0.44;65.46
59289;BME280;45056;47.602;9.886;2024-01-15T10:17:40;91741.03;;;0.42;65.73
59289;BME280;45056;47.602;9.886;2024-01-15T10:20:09;91741.78;;;0.43;65.80
59289;BME280;45056;47.602;9.886;2024-01-15T10:22:42;91746.75;;;0.45;65.53
59289;BME280;45056;47.602;9.886;2024-01-15T10:25:14;91739.47;;;0.45;65.71
59289;BME280;45056;47.602;9.886;2024-01-15T10:27:43;91726.84;;;0.46;65.56
59289;BME280;45056;47.602;9.886;2024-01-15T10:30:12;91722.66;;;0.45;65.27
59289;BME280;45056;47.602;9.886;2024-01-15T10:32:41;91721.88;;;0.44;64.84
59289;BME280;45056;47.602;9.886;2024-01-15T10:35:09;91717.69;;;0.43;65.01
59289;BME280;45056;47.602;9.886;2024-01-15T10:37:38;91718.06;;;0.45;64.80
59289;BME280;45056;47.602;9.886;2024-01-15T10:40:06;91712.69;;;0.45;64.50
59289;BME280;45056;47.602;9.886;2024-01-15T10:42:37;91720.72;;;0.45;64.40
59289;BME280;45056;47.602;9.886;2024-01-15T10:45:06;91713.50;;;0.42;64.47
59289;BME280;45056;47.602;9.886;2024-01-15T10:47:35;91721.88;;;0.44;64.28
59289;BME280;45056;47.602;9.886;2024-01-15T10:50:06;91705.84;;;0.44;64.12
59289;BME280;45056;47.602;9.886;2024-01-15T10:52:35;91691.28;;;0.45;64.06
59289;BME280;45056;47.602;9.886;2024-01-15T10:55:06;91685.16;;;0.48;63.77
59289;BME280;45056;47.602;9.886;2024-01-15T10:57:38;91698.88;;;0.50;63.28
59289;BME280;45056;47.602;9.886;2024-01-15T11:00:07;91695.78;;;0.52;62.90
59289;BME280;45056;47.602;9.886;2024-01-15T11:02:41;91689.59;;;0.55;63.14
59289;BME280;45056;47.602;9.886;2024-01-15T11:05:11;91687.28;;;0.57;62.92
59289;BME280;45056;47.602;9.886;2024-01-15T11:07:40;91701.78;;;0.60;62.46
59289;BME280;45056;47.602;9.886;2024-01-15T11:10:37;91702.50;;;0.60;62.05
59289;BME280;45056;47.602;9.886;2024-01-15T11:13:14;91698.31;;;0.59;62.11
59289;BME280;45056;47.602;9.886;2024-01-15T11:16:01;91690.28;;;0.59;61.84
59289;BME280;45056;47.602;9.886;2024-01-15T11:18:35;91689.47;;;0.62;61.63
59289;BME280;45056;47.602;9.886;2024-01-15T11:21:25;91684.88;;;0.63;61.22
59289;BME280;45056;47.602;9.886;2024-01-15T11:23:56;91677.97;;;0.65;61.16
59289;BME280;45056;47.602;9.886;2024-01-15T11:26:33;91673.31;;;0.69;61.07
59289;BME280;45056;47.602;9.886;2024-01-15T11:29:05;91674.00;;;0.74;60.69
59289;BME280;45056;47.602;9.886;2024-01-15T11:31:57;91665.97;;;0.74;60.46
59289;BME280;45056;47.602;9.886;2024-01-15T11:34:51;91664.47;;;0.73;60.05
59289;BME280;45056;47.602;9.886;2024-01-15T11:37:26;91670.16;;;0.75;60.35
59289;BME280;45056;47.602;9.886;2024-01-15T11:39:56;91660.63;;;0.74;60.22
59289;BME280;45056;47.602;9.886;2024-01-15T11:42:30;91657.13;;;0.77;60.49
59289;BME280;45056;47.602;9.886;2024-01-15T11:44:59;91668.94;;;0.79;60.36
59289;BME280;45056;47.602;9.886;2024-01-15T11:50:40;91673.00;;;0.88;60.09
59289;BME280;45056;47.602;9.886;2024-01-15T11:53:32;91671.81;;;0.89;59.90
59289;BME280;45056;47.602;9.886;2024-01-15T11:56:14;91660.28;;;0.92;59.83
59289;BME280;45056;47.602;9.886;2024-01-15T11:58:43;91662.13;;;0.95;59.48
59289;BME280;45056;47.602;9.886;2024-01-15T12:01:12;91658.63;;;0.98;59.25
59289;BME280;45056;47.602;9.886;2024-01-15T12:03:41;91646.75;;;0.99;59.33
59289;BME280;45056;47.602;9.886;2024-01-15T12:06:09;91641.00;;;1.00;59.40
59289;BME280;45056;47.602;9.886;2024-01-15T12:08:38;91623.41;;;0.99;59.01
59289;BME280;45056;47.602;9.886;2024-01-15T12:11:06;91624.94;;;1.00;58.83
59289;BME280;45056;47.602;9.886;2024-01-15T12:13:38;91624.09;;;1.04;58.85
59289;BME280;45056;47.602;9.886;2024-01-15T12:16:06;91621.31;;;1.07;58.95
59289;BME280;45056;47.602;9.886;2024-01-15T12:18:36;91622.03;;;1.11;58.86
59289;BME280;45056;47.602;9.886;2024-01-15T12:21:04;91626.56;;;1.14;58.29
59289;BME280;45056;47.602;9.886;2024-01-15T12:23:33;91620.09;;;1.12;58.19
59289;BME280;45056;47.602;9.886;2024-01-15T12:26:01;91614.34;;;1.13;57.93
59289;BME280;45056;47.602;9.886;2024-01-15T12:28:30;91617.75;;;1.14;57.70
59289;BME280;45056;47.602;9.886;2024-01-15T12:30:58;91621.94;;;1.15;57.62
59289;BME280;45056;47.602;9.886;2024-01-15T12:33:33;91610.50;;;1.14;57.45
59289;BME280;45056;47.602;9.886;2024-01-15T12:36:04;91606.69;;;1.12;57.04
59289;BME280;45056;47.602;9.886;2024-01-15T12:38:32;91618.59;;;1.11;57.44
59289;BME280;45056;47.602;9.886;2024-01-15T12:41:00;91612.06;;;1.12;57.58
59289;BME280;45056;47.602;9.886;2024-01-15T12:43:28;91615.84;;;1.14;57.17
59289;BME280;45056;47.602;9.886;2024-01-15T12:45:56;91623.56;;;1.12;57.17
59289;BME280;45056;47.602;9.886;2024-01-15T12:48:24;91628.56;;;1.10;57.45
59289;BME280;45056;47.602;9.886;2024-01-15T12:50:52;91632.81;;;1.08;57.29
59289;BME280;45056;47.602;9.886;2024-01-15T12:53:22;91622.09;;;1.08;56.98
59289;BME280;45056;47.602;9.886;2024-01-15T12:55:50;91626.69;;;1.07;57.16
59289;BME280;45056;47.602;9.886;2024-01-15T12:58:18;91615.97;;;1.07;57.07
59289;BME280;45056;47.602;9.886;2024-01-15T13:00:46;91607.53;;;1.09;56.92
59289;BME280;45056;47.602;9.886;2024-01-15T13:03:14;91612.13;;;1.08;56.73
59289;BME280;45056;47.602;9.886;2024-01-15T13:05:42;91602.19;;;1.09;56.78
59289;BME280;45056;47.602;9.886;2024-01-15T13:08:11;91601.41;;;1.08;56.67
59289;BME280;45056;47.602;9.886;2024-01-15T13:10:40;91590.78;;;1.05;56.59
59289;BME280;45056;47.602;9.886;2024-01-15T13:13:09;91594.28;;;1.02;56.38
59289;BME280;45056;47.602;9.886;2024-01-15T13:15:37;91607.69;;;1.02;56.79
59289;BME280;45056;47.602;9.886;2024-01-15T13:18:06;91612.22;;;1.05;57.00
59289;BME280;45056;47.602;9.886;2024-01-15T13:20:34;91609.88;;;1.07;56.66
59289;BME280;45056;47.602;9.886;2024-01-15T13:23:03;91614.41;;;1.10;56.71